East Amwell Township, New Jersey
Current Conditions -  °F | °C
As of 8:53 AM on Saturday 22 Nov 2014 (Local Time) from KTTN Reporting Station
Clear Clear  
Wind Chill: 23°   Ceiling: Unl
Heat Index: 28°   Visibility: 8mi
Dew Point: 14°   Wind: 5mph
Humidity: 56%   Direction: 240°WSW
Pressure: 30.49"   Gusts: NA
Location:  40.4412°N, 74.8354°W
Report Text: KTTN 221353Z 24004KT 8SM CLR M02/M10 A3049 RMK AO2 SLP320 T10221100
Loading
Personal Weather Stations






























Interactive Weather Map New forecast layout! Learn more

10-Day Weather Forecast

Advertisements
Track Severe Weather on mobile